Time;durP1;ratioP1;P1;durP2;ratioP2;P2;SDS_P1;SDS_P2;PMS_P1;PMS_P2;Temp;Humidity;BMP_temperature;BMP_pressure;BME280_temperature;BME280_humidity;BME280_pressure;Samples;Min_cycle;Max_cycle;Signal;HPM_P1;HPM_P2
2021/01/22 00:02:20;;;;;;;0.82;0.75;;;;;;;3.83;100.00;98546.75;5205290;28;20068;-62
2021/01/22 00:04:50;;;;;;;2.38;0.82;;;;;;;3.66;100.00;98556.63;5199907;28;20404;-64
2021/01/22 00:07:21;;;;;;;1.50;0.90;;;;;;;3.59;100.00;98555.72;5196224;28;20033;-64
2021/01/22 00:09:52;;;;;;;1.67;1.10;;;;;;;3.45;100.00;98580.31;5191369;28;20025;-64
2021/01/22 00:12:22;;;;;;;2.38;1.50;;;;;;;3.35;100.00;98589.31;5205073;28;20487;-64
2021/01/22 00:14:53;;;;;;;2.90;1.20;;;;;;;3.30;100.00;98607.56;5197498;28;20040;-63
2021/01/22 00:17:23;;;;;;;3.25;1.45;;;;;;;3.29;100.00;98605.09;5184427;28;20053;-64
2021/01/22 00:19:54;;;;;;;5.38;1.30;;;;;;;3.22;100.00;98617.41;5204865;28;20503;-62
2021/01/22 00:22:24;;;;;;;2.03;1.40;;;;;;;3.20;100.00;98627.34;5204799;28;20092;-63
2021/01/22 00:24:55;;;;;;;3.35;2.28;;;;;;;3.16;100.00;98620.72;5182693;28;20034;-63
2021/01/22 00:27:26;;;;;;;3.50;2.30;;;;;;;3.12;100.00;98630.88;5201203;28;20029;-63
2021/01/22 00:29:56;;;;;;;3.47;2.20;;;;;;;3.13;100.00;98637.81;5204111;28;20113;-63
2021/01/22 00:32:27;;;;;;;4.35;2.45;;;;;;;3.08;100.00;98633.03;5204390;28;20104;-63
2021/01/22 00:34:57;;;;;;;3.80;2.67;;;;;;;3.10;100.00;98652.22;5204256;28;20041;-62
2021/01/22 00:37:28;;;;;;;4.78;3.13;;;;;;;3.06;100.00;98652.72;5196548;28;20021;-62
2021/01/22 00:39:58;;;;;;;3.45;2.65;;;;;;;3.13;100.00;98653.72;5189641;28;20022;-63
2021/01/22 00:42:29;;;;;;;3.25;2.33;;;;;;;3.15;100.00;98670.25;5196695;28;20331;-63
2021/01/22 00:45:00;;;;;;;4.22;2.40;;;;;;;3.14;100.00;98675.72;5197723;28;20021;-64
2021/01/22 00:47:30;;;;;;;2.80;2.00;;;;;;;3.14;100.00;98687.16;5196171;28;20025;-62
2021/01/22 00:50:01;;;;;;;2.70;2.03;;;;;;;3.09;100.00;98690.31;5199341;28;20388;-64
2021/01/22 00:52:31;;;;;;;3.97;2.00;;;;;;;3.13;100.00;98695.28;5204448;28;20602;-63
2021/01/22 00:55:02;;;;;;;3.53;2.10;;;;;;;3.09;100.00;98692.13;5202563;28;20037;-64
2021/01/22 00:57:33;;;;;;;4.72;2.30;;;;;;;3.07;100.00;98692.31;5193250;28;20021;-63
2021/01/22 01:00:05;;;;;;;4.20;2.20;;;;;;;3.04;100.00;98703.25;5201422;28;20029;-64
2021/01/22 01:02:36;;;;;;;4.72;2.15;;;;;;;3.01;100.00;98716.00;5204170;28;20499;-64
2021/01/22 01:05:07;;;;;;;3.67;2.10;;;;;;;2.93;100.00;98711.56;5202895;28;20025;-64
2021/01/22 01:07:37;;;;;;;3.85;2.10;;;;;;;2.94;100.00;98712.38;5204131;28;20542;-62
2021/01/22 01:10:08;;;;;;;2.90;1.98;;;;;;;2.84;100.00;98724.00;5177318;28;20024;-64
2021/01/22 01:12:39;;;;;;;3.25;1.73;;;;;;;2.88;100.00;98729.78;5189454;28;20045;-64
2021/01/22 01:15:10;;;;;;;6.28;1.95;;;;;;;2.89;100.00;98744.66;5182475;28;20034;-64
2021/01/22 01:17:41;;;;;;;5.32;2.63;;;;;;;2.78;100.00;98751.16;5192622;28;20038;-64
2021/01/22 01:20:12;;;;;;;6.00;2.47;;;;;;;2.73;100.00;98758.75;5203762;28;20026;-64
2021/01/22 01:22:43;;;;;;;7.30;3.05;;;;;;;2.72;100.00;98758.94;5186415;28;20109;-64
2021/01/22 01:25:13;;;;;;;5.60;2.60;;;;;;;2.76;100.00;98763.75;5176666;28;20137;-63
2021/01/22 01:27:43;;;;;;;6.57;3.25;;;;;;;2.73;100.00;98758.75;5196274;28;20068;-64
2021/01/22 01:30:15;;;;;;;5.70;3.45;;;;;;;2.70;100.00;98761.72;5195812;28;20494;-64
2021/01/22 01:32:45;;;;;;;8.43;3.60;;;;;;;2.69;100.00;98761.91;5190007;28;20056;-62
2021/01/22 01:35:16;;;;;;;6.78;3.63;;;;;;;2.67;100.00;98763.91;5202320;28;20025;-64
2021/01/22 01:37:46;;;;;;;8.73;3.97;;;;;;;2.66;100.00;98773.69;5194975;28;20033;-64
2021/01/22 01:40:17;;;;;;;8.23;4.18;;;;;;;2.65;100.00;98785.22;5191440;28;20033;-64
2021/01/22 01:42:47;;;;;;;7.18;3.38;;;;;;;2.65;100.00;98793.19;5182358;28;20479;-64
2021/01/22 01:45:18;;;;;;;8.00;4.05;;;;;;;2.65;100.00;98802.94;5185120;28;20029;-63
2021/01/22 01:47:48;;;;;;;8.32;4.05;;;;;;;2.66;100.00;98802.81;5192551;28;20075;-63
2021/01/22 01:50:19;;;;;;;15.43;4.80;;;;;;;2.66;100.00;98799.28;5195526;28;20499;-63
2021/01/22 01:52:49;;;;;;;9.13;3.72;;;;;;;2.68;100.00;98798.16;5194399;28;20047;-63
2021/01/22 01:55:20;;;;;;;9.48;3.97;;;;;;;2.73;100.00;98806.44;5202062;28;20022;-64
2021/01/22 01:57:51;;;;;;;6.78;3.72;;;;;;;2.71;100.00;98803.13;5202930;28;20030;-63
2021/01/22 02:00:22;;;;;;;11.57;3.55;;;;;;;2.68;100.00;98810.56;5182470;28;20022;-63
2021/01/22 02:02:52;;;;;;;8.05;3.67;;;;;;;2.66;100.00;98823.97;5183055;28;20529;-64
2021/01/22 02:05:23;;;;;;;10.60;4.43;;;;;;;2.67;100.00;98819.50;5203016;28;20013;-63
2021/01/22 02:07:53;;;;;;;9.10;4.20;;;;;;;2.61;100.00;98828.94;5189054;28;20109;-64
2021/01/22 02:10:24;;;;;;;6.32;3.72;;;;;;;2.62;100.00;98845.66;5202140;28;20457;-64
2021/01/22 02:12:56;;;;;;;8.30;4.30;;;;;;;2.64;100.00;98859.53;5202311;28;20265;-63
2021/01/22 02:15:28;;;;;;;9.38;4.43;;;;;;;2.55;100.00;98856.03;5202538;28;20028;-64
2021/01/22 02:18:00;;;;;;;10.88;3.97;;;;;;;2.50;100.00;98859.19;5189566;28;20060;-64
2021/01/22 02:21:02;;;;;;;11.77;4.60;;;;;;;2.53;100.00;98853.56;5201450;28;20399;-63
2021/01/22 02:24:08;;;;;;;24.48;6.03;;;;;;;2.47;100.00;98854.22;5175905;28;20097;-64
2021/01/22 02:26:57;;;;;;;11.25;5.40;;;;;;;2.49;100.00;98856.72;5192484;28;20021;-63
2021/01/22 02:29:28;;;;;;;12.15;5.25;;;;;;;2.42;100.00;98861.00;5202883;28;20487;-63
2021/01/22 02:32:04;;;;;;;13.18;5.53;;;;;;;2.42;100.00;98861.84;5188766;28;20550;-63
2021/01/22 02:34:38;;;;;;;11.93;5.45;;;;;;;2.35;100.00;98855.50;5201881;28;20025;-64
2021/01/22 02:37:12;;;;;;;15.65;5.50;;;;;;;2.33;100.00;98862.78;5201258;28;20044;-63
2021/01/22 02:39:50;;;;;;;15.75;5.93;;;;;;;2.30;100.00;98856.00;5183544;28;20495;-64
2021/01/22 02:42:22;;;;;;;16.95;6.07;;;;;;;2.23;100.00;98851.53;5183202;28;20044;-64
2021/01/22 02:44:54;;;;;;;13.50;5.82;;;;;;;2.20;100.00;98849.19;5181499;28;20033;-64
2021/01/22 02:47:28;;;;;;;18.88;6.32;;;;;;;2.18;100.00;98859.94;5181506;28;20061;-62
2021/01/22 02:49:58;;;;;;;13.88;5.60;;;;;;;2.11;100.00;98869.53;5196727;28;20442;-64
2021/01/22 02:52:29;;;;;;;13.43;5.00;;;;;;;2.02;100.00;98860.72;5192700;28;20160;-63
2021/01/22 02:55:00;;;;;;;14.20;5.40;;;;;;;1.97;100.00;98878.06;5197595;28;20491;-64
2021/01/22 02:57:43;;;;;;;19.27;5.50;;;;;;;1.92;100.00;98880.34;5191546;28;20038;-62
2021/01/22 03:00:18;;;;;;;12.75;5.20;;;;;;;1.87;100.00;98893.22;5201015;28;20022;-64
2021/01/22 03:02:56;;;;;;;12.35;4.68;;;;;;;1.80;100.00;98888.53;5187135;28;20044;-63
2021/01/22 03:05:31;;;;;;;13.05;5.55;;;;;;;1.81;100.00;98897.34;5201622;28;20030;-63
2021/01/22 03:08:12;;;;;;;11.32;4.97;;;;;;;1.80;100.00;98912.34;5201883;28;20407;-64
2021/01/22 03:10:46;;;;;;;15.93;5.60;;;;;;;1.79;100.00;98921.28;5201706;28;20037;-63
2021/01/22 03:13:16;;;;;;;14.18;5.05;;;;;;;1.78;100.00;98914.31;5201151;28;20017;-64
2021/01/22 03:15:48;;;;;;;14.65;5.35;;;;;;;1.81;100.00;98919.31;5200332;28;20483;-64
2021/01/22 03:18:20;;;;;;;20.73;4.47;;;;;;;1.92;100.00;98920.03;5184668;28;20403;-63
2021/01/22 03:20:50;;;;;;;11.57;4.78;;;;;;;1.90;100.00;98921.97;5202340;28;20037;-64
2021/01/22 03:23:21;;;;;;;16.98;5.03;;;;;;;1.92;100.00;98925.31;5192677;28;20025;-64
2021/01/22 03:25:51;;;;;;;10.45;3.95;;;;;;;1.93;100.00;98945.47;5184513;28;20021;-64
2021/01/22 03:28:22;;;;;;;17.92;4.90;;;;;;;2.02;100.00;98944.53;5199646;28;20032;-64
2021/01/22 03:30:52;;;;;;;12.70;4.07;;;;;;;2.01;100.00;98942.88;5208172;28;20025;-63
2021/01/22 03:33:23;;;;;;;11.73;4.25;;;;;;;2.13;100.00;98948.72;5195888;28;20057;-63
2021/01/22 03:35:53;;;;;;;14.00;4.95;;;;;;;2.21;100.00;98949.59;5200689;28;20029;-64
2021/01/22 03:38:24;;;;;;;10.50;4.10;;;;;;;2.21;100.00;98944.31;5179164;28;20030;-63
2021/01/22 03:40:54;;;;;;;11.63;4.50;;;;;;;2.23;100.00;98944.13;5187689;28;20446;-64
2021/01/22 03:43:25;;;;;;;15.07;4.55;;;;;;;2.25;100.00;98939.50;5188273;28;20060;-64
2021/01/22 03:45:55;;;;;;;10.15;4.47;;;;;;;2.27;100.00;98943.66;5206512;28;20029;-64
2021/01/22 03:48:26;;;;;;;13.70;4.70;;;;;;;2.34;100.00;98934.06;5190847;28;20014;-63
2021/01/22 03:50:56;;;;;;;13.65;4.45;;;;;;;2.44;100.00;98943.69;5196715;28;20032;-64
2021/01/22 03:53:27;;;;;;;11.10;4.80;;;;;;;2.54;100.00;98947.03;5206535;28;20021;-64
2021/01/22 03:55:57;;;;;;;9.80;4.40;;;;;;;2.67;100.00;98955.38;5208545;28;20076;-63
2021/01/22 03:58:28;;;;;;;8.38;4.18;;;;;;;2.69;100.00;98958.66;5202396;28;20049;-64
2021/01/22 04:00:58;;;;;;;11.23;4.20;;;;;;;2.72;100.00;98953.06;5200749;28;20475;-63
2021/01/22 04:03:29;;;;;;;10.10;4.05;;;;;;;2.84;100.00;98961.50;5206640;28;20029;-64
2021/01/22 04:05:59;;;;;;;11.77;4.38;;;;;;;2.82;100.00;98952.91;5208264;28;20029;-64
2021/01/22 04:08:30;;;;;;;9.73;3.83;;;;;;;2.85;100.00;98953.41;5194688;28;20368;-64
2021/01/22 04:11:00;;;;;;;9.32;3.92;;;;;;;2.83;100.00;98954.56;5208223;28;20030;-63
2021/01/22 04:13:31;;;;;;;13.73;4.15;;;;;;;2.89;100.00;98953.91;5206876;28;20030;-63
2021/01/22 04:16:02;;;;;;;12.25;4.10;;;;;;;2.87;100.00;98958.56;5208056;28;20411;-64
2021/01/22 04:18:33;;;;;;;9.68;4.00;;;;;;;2.87;100.00;98957.72;5201441;28;20033;-64
2021/01/22 04:21:03;;;;;;;14.93;4.25;;;;;;;2.84;100.00;98972.94;5207468;28;20030;-64
2021/01/22 04:23:34;;;;;;;7.20;3.63;;;;;;;2.89;100.00;98966.31;5198622;28;20333;-64
2021/01/22 04:26:04;;;;;;;9.40;3.40;;;;;;;2.87;100.00;98966.50;5186231;28;20025;-63
2021/01/22 04:28:35;;;;;;;10.77;4.20;;;;;;;2.90;100.00;98975.91;5200061;28;20560;-63
2021/01/22 04:31:05;;;;;;;18.00;6.10;;;;;;;2.92;100.00;98982.72;5201710;28;20108;-64
2021/01/22 04:33:36;;;;;;;10.30;4.10;;;;;;;2.96;100.00;98983.22;5195445;28;20061;-64
2021/01/22 04:36:06;;;;;;;15.30;4.22;;;;;;;2.97;100.00;98987.53;5197357;28;20014;-63
2021/01/22 04:38:37;;;;;;;13.93;4.78;;;;;;;3.04;100.00;98988.53;5177923;28;20131;-62
2021/01/22 04:41:07;;;;;;;19.35;5.38;;;;;;;3.10;100.00;98993.16;5184421;28;20025;-64
2021/01/22 04:43:44;;;;;;;14.65;4.75;;;;;;;3.18;100.00;98995.84;5196167;28;20582;-64
2021/01/22 04:46:16;;;;;;;13.98;4.65;;;;;;;3.19;100.00;98997.50;5195119;28;20029;-64
2021/01/22 04:48:48;;;;;;;15.07;4.30;;;;;;;3.24;100.00;99000.47;5186353;28;20548;-64
2021/01/22 04:51:23;;;;;;;11.45;4.60;;;;;;;3.28;100.00;98990.38;5184339;28;20029;-63
2021/01/22 04:53:57;;;;;;;14.18;6.10;;;;;;;3.31;100.00;98990.03;5182878;28;20420;-64
2021/01/22 04:56:31;;;;;;;18.58;6.57;;;;;;;3.30;100.00;98991.88;5196982;28;20513;-63
2021/01/22 04:59:07;;;;;;;12.65;5.68;;;;;;;3.31;100.00;98996.19;5192936;28;20036;-63
2021/01/22 05:01:38;;;;;;;14.38;5.00;;;;;;;3.34;100.00;98998.50;5204246;28;20025;-62
2021/01/22 05:04:09;;;;;;;12.07;5.45;;;;;;;3.44;100.00;98997.50;5202952;28;20028;-64
2021/01/22 05:06:40;;;;;;;9.40;4.82;;;;;;;3.43;100.00;98994.03;5191018;28;20022;-64
2021/01/22 05:09:10;;;;;;;13.63;5.80;;;;;;;3.46;100.00;98995.50;5203387;28;20384;-64
2021/01/22 05:11:41;;;;;;;12.75;4.72;;;;;;;3.49;100.00;98996.03;5204174;28;20599;-64
2021/01/22 05:14:11;;;;;;;13.18;6.05;;;;;;;3.54;100.00;99006.13;5201513;28;20048;-63
2021/01/22 05:16:58;;;;;;;12.68;5.38;;;;;;;3.43;100.00;99002.00;5203188;28;20022;-64
2021/01/22 05:19:29;;;;;;;13.90;5.40;;;;;;;3.41;100.00;99003.97;5199238;28;20053;-64
2021/01/22 05:22:02;;;;;;;14.98;5.88;;;;;;;3.33;100.00;99002.16;5204419;28;20053;-64
2021/01/22 05:24:34;;;;;;;15.18;5.97;;;;;;;3.33;100.00;99001.31;5186708;28;20017;-64
2021/01/22 05:27:11;;;;;;;16.42;6.40;;;;;;;3.32;100.00;98999.69;5195308;28;20483;-63
2021/01/22 05:29:43;;;;;;;24.20;7.38;;;;;;;3.29;100.00;99006.13;5191674;28;20021;-64
2021/01/22 05:32:28;;;;;;;18.02;7.68;;;;;;;3.27;100.00;98999.34;5203480;28;20171;-64
2021/01/22 05:34:59;;;;;;;16.20;7.22;;;;;;;3.29;100.00;99006.13;5202972;28;20393;-63
2021/01/22 05:37:29;;;;;;;16.17;7.30;;;;;;;3.24;100.00;98997.84;5186917;28;20148;-63
2021/01/22 05:40:12;;;;;;;15.90;6.25;;;;;;;3.18;100.00;99001.16;5188374;28;20504;-64
2021/01/22 05:42:49;;;;;;;11.13;6.22;;;;;;;3.13;100.00;99022.00;5179917;28;20040;-63
2021/01/22 05:45:39;;;;;;;19.63;6.30;;;;;;;3.09;100.00;99012.72;5202526;28;20033;-64
2021/01/22 05:48:17;;;;;;;27.25;6.53;;;;;;;3.07;100.00;99012.88;5190664;28;20028;-63
2021/01/22 05:50:50;;;;;;;19.38;6.40;;;;;;;3.08;100.00;99024.31;5203404;28;20030;-64
2021/01/22 05:53:22;;;;;;;23.85;7.18;;;;;;;3.06;100.00;99031.56;5201935;28;20037;-64
2021/01/22 05:56:05;;;;;;;17.67;7.30;;;;;;;3.01;100.00;99026.78;5203923;28;20451;-64
2021/01/22 05:58:38;;;;;;;19.08;7.43;;;;;;;2.96;100.00;99031.75;5189743;28;20030;-64
2021/01/22 06:01:11;;;;;;;16.48;7.05;;;;;;;3.06;100.00;99034.22;5202770;28;20112;-63
2021/01/22 06:03:45;;;;;;;21.08;7.45;;;;;;;3.01;100.00;99029.44;5201944;28;20041;-64
2021/01/22 06:06:18;;;;;;;18.05;6.75;;;;;;;3.04;100.00;99047.66;5187931;28;20056;-64
2021/01/22 06:08:57;;;;;;;18.98;7.95;;;;;;;3.02;100.00;99043.50;5192256;28;20033;-64
2021/01/22 06:11:30;;;;;;;22.45;7.88;;;;;;;3.01;100.00;99040.03;5202510;28;20032;-63
2021/01/22 06:14:05;;;;;;;18.27;8.48;;;;;;;3.05;100.00;99048.47;5201939;28;20026;-64
2021/01/22 06:16:36;;;;;;;19.55;8.73;;;;;;;3.01;100.00;99047.13;5189378;28;20108;-63
2021/01/22 06:19:08;;;;;;;18.48;8.18;;;;;;;2.95;100.00;99050.44;5189402;28;20116;-63
2021/01/22 06:21:43;;;;;;;24.90;9.40;;;;;;;2.93;100.00;99049.78;5195326;28;20037;-64
2021/01/22 06:24:14;;;;;;;31.05;10.20;;;;;;;2.89;100.00;99051.09;5174897;28;20018;-64
2021/01/22 06:26:45;;;;;;;28.05;9.00;;;;;;;2.91;100.00;99060.50;5193952;28;20017;-63
2021/01/22 06:29:17;;;;;;;20.42;8.63;;;;;;;2.93;100.00;99057.72;5196274;28;20026;-64
2021/01/22 06:31:48;;;;;;;28.55;10.18;;;;;;;2.93;100.00;99066.50;5194965;28;20037;-64
2021/01/22 06:34:21;;;;;;;26.25;9.70;;;;;;;2.97;100.00;99059.06;5200734;28;20064;-62
2021/01/22 06:36:52;;;;;;;22.65;9.23;;;;;;;3.00;100.00;99054.25;5189985;28;20025;-64
2021/01/22 06:39:23;;;;;;;28.08;9.85;;;;;;;2.98;100.00;99069.50;5184046;28;20025;-63
2021/01/22 06:41:55;;;;;;;27.67;9.32;;;;;;;2.98;100.00;99066.84;5202425;28;20029;-64
2021/01/22 06:44:25;;;;;;;23.27;9.05;;;;;;;2.96;100.00;99065.31;5201649;28;20087;-63
2021/01/22 06:46:56;;;;;;;20.48;9.15;;;;;;;2.93;100.00;99076.25;5184845;28;20037;-63
2021/01/22 06:49:32;;;;;;;28.88;11.20;;;;;;;2.90;100.00;99085.34;5182181;28;20028;-64
2021/01/22 06:52:10;;;;;;;27.60;10.52;;;;;;;2.83;100.00;99082.50;5181796;28;20025;-63
2021/01/22 06:54:56;;;;;;;29.48;10.95;;;;;;;2.89;100.00;99088.16;5194563;28;20025;-64
2021/01/22 06:57:26;;;;;;;;;;;;;;;2.85;100.00;99091.13;5202600;28;20032;-64
2021/01/22 06:59:58;;;;;;;24.23;8.98;;;;;;;2.80;100.00;99101.38;5201561;28;20287;-64
2021/01/22 07:02:38;;;;;;;32.53;10.27;;;;;;;2.81;100.00;99103.03;5202346;28;20426;-64
2021/01/22 07:05:40;;;;;;;25.83;9.85;;;;;;;2.74;100.00;99102.00;5201004;28;20486;-64
2021/01/22 07:08:11;;;;;;;24.98;9.45;;;;;;;2.75;100.00;99105.47;5202123;28;20448;-64
2021/01/22 07:10:56;;;;;;;25.88;8.98;;;;;;;2.71;100.00;99106.78;5202007;28;20056;-63
2021/01/22 07:13:34;;;;;;;22.73;8.55;;;;;;;2.68;100.00;99118.53;5177831;28;20080;-64
2021/01/22 07:16:07;;;;;;;23.65;8.95;;;;;;;2.63;100.00;99120.81;5197060;28;20033;-64
2021/01/22 07:18:51;;;;;;;21.10;9.07;;;;;;;2.59;100.00;99122.94;5181606;28;20029;-64
2021/01/22 07:21:29;;;;;;;26.92;8.43;;;;;;;2.67;100.00;99127.47;5188061;28;20403;-63
2021/01/22 07:24:02;;;;;;;28.60;9.05;;;;;;;2.69;100.00;99129.94;5190070;28;20030;-64
2021/01/22 07:26:40;;;;;;;33.40;9.93;;;;;;;2.68;100.00;99136.25;5190185;28;20033;-64
2021/01/22 07:29:14;;;;;;;24.70;8.70;;;;;;;2.65;100.00;99137.38;5201701;28;20036;-64
2021/01/22 07:31:56;;;;;;;24.00;8.68;;;;;;;2.63;100.00;99143.81;5189594;28;20108;-64
2021/01/22 07:34:37;;;;;;;29.60;10.48;;;;;;;2.57;100.00;99138.16;5167931;28;20029;-63
2021/01/22 07:37:11;;;;;;;30.17;11.88;;;;;;;2.55;100.00;99145.41;5196611;28;20377;-64
2021/01/22 07:39:43;;;;;;;29.00;10.43;;;;;;;2.55;100.00;99150.72;5172735;28;20109;-64
2021/01/22 07:42:16;;;;;;;33.17;9.05;;;;;;;2.63;100.00;99151.75;5194250;28;20451;-65
2021/01/22 07:44:48;;;;;;;29.17;9.98;;;;;;;2.58;100.00;99154.88;5180938;28;20030;-64
2021/01/22 07:47:25;;;;;;;26.98;9.18;;;;;;;2.57;100.00;99164.66;5193641;28;20048;-64
2021/01/22 07:49:58;;;;;;;30.35;9.88;;;;;;;2.51;100.00;99157.34;5182948;28;20029;-64
2021/01/22 07:52:29;;;;;;;25.42;8.88;;;;;;;2.48;100.00;99162.09;5192159;28;20404;-65
2021/01/22 07:54:59;;;;;;;32.97;9.70;;;;;;;2.48;100.00;99162.09;5194353;28;20037;-64
2021/01/22 07:57:30;;;;;;;27.73;9.52;;;;;;;2.47;100.00;99174.50;5181087;28;20547;-64
2021/01/22 08:00:06;;;;;;;26.92;9.80;;;;;;;2.42;100.00;99179.44;5180549;28;20022;-64
2021/01/22 08:02:37;;;;;;;27.90;8.98;;;;;;;2.42;100.00;99184.72;5193160;28;20029;-64
2021/01/22 08:05:08;;;;;;;25.75;8.95;;;;;;;2.43;100.00;99180.25;5194300;28;20029;-64
2021/01/22 08:07:40;;;;;;;28.73;9.65;;;;;;;2.47;100.00;99181.63;5182502;28;20053;-64
2021/01/22 08:10:12;;;;;;;25.67;8.48;;;;;;;2.45;100.00;99189.69;5192918;28;20048;-63
2021/01/22 08:12:57;;;;;;;29.70;9.50;;;;;;;2.43;100.00;99188.19;5204738;28;20021;-64
2021/01/22 08:15:28;;;;;;;;;;;;;;;2.44;100.00;99203.09;5205943;28;20441;-64
2021/01/22 08:17:59;;;;;;;46.05;19.73;;;;;;;2.47;100.00;99200.97;5180428;28;19932;-64
2021/01/22 08:20:29;;;;;;;48.65;19.92;;;;;;;2.48;100.00;99202.63;5170326;28;20081;-63
2021/01/22 08:23:00;;;;;;;52.97;21.30;;;;;;;2.51;100.00;99214.72;5180122;28;20022;-64
2021/01/22 08:25:35;;;;;;;48.33;19.25;;;;;;;2.53;100.00;99220.69;5179864;28;20429;-64
2021/01/22 08:28:08;;;;;;;31.17;12.98;;;;;;;2.55;100.00;99221.38;5191038;28;20124;-64
2021/01/22 08:30:39;;;;;;;27.42;11.23;;;;;;;2.62;100.00;99229.53;5202443;28;20033;-63
2021/01/22 08:33:10;;;;;;;35.72;10.82;;;;;;;2.64;100.00;99219.63;5189941;28;20097;-64
2021/01/22 08:35:41;;;;;;;21.02;8.60;;;;;;;2.68;100.00;99232.38;5186564;28;20026;-64
2021/01/22 08:38:12;;;;;;;22.60;8.98;;;;;;;2.72;100.00;99233.75;5194686;28;20034;-63
2021/01/22 08:40:44;;;;;;;23.80;9.65;;;;;;;2.78;100.00;99233.13;5195559;28;20109;-64
2021/01/22 08:43:15;;;;;;;23.02;8.82;;;;;;;2.81;100.00;99229.31;5193586;28;20029;-64
2021/01/22 08:46:05;;;;;;;23.73;9.13;;;;;;;2.88;100.00;99240.13;5202180;28;20029;-64
2021/01/22 08:48:37;;;;;;;26.73;8.90;;;;;;;2.92;100.00;99242.31;5188929;28;20760;-64
2021/01/22 08:51:08;;;;;;;20.85;9.15;;;;;;;2.97;100.00;99249.81;5221729;23;20045;-78
2021/01/22 08:53:53;;;;;;;30.08;8.52;;;;;;;2.98;100.00;99260.22;5228260;28;20033;-78
2021/01/22 08:56:24;;;;;;;23.80;8.48;;;;;;;3.05;100.00;99255.94;5229094;28;20021;-77
2021/01/22 08:58:58;;;;;;;27.63;9.63;;;;;;;3.08;100.00;99260.13;5229261;28;20390;-77
2021/01/22 09:01:58;;;;;;;19.33;8.52;;;;;;;3.17;100.00;99258.34;5228836;28;20076;-78
2021/01/22 09:04:31;;;;;;;24.55;9.05;;;;;;;3.23;100.00;99273.63;5227375;28;20104;-78
2021/01/22 09:07:05;;;;;;;27.38;8.25;;;;;;;3.27;100.00;99270.50;5229306;28;20537;-76
2021/01/22 09:09:38;;;;;;;25.98;9.00;;;;;;;3.29;100.00;99273.00;5229095;28;20024;-79
2021/01/22 09:12:11;;;;;;;22.00;8.55;;;;;;;3.36;100.00;99274.00;5226557;28;20025;-78
2021/01/22 09:14:54;;;;;;;18.17;7.97;;;;;;;3.32;100.00;99278.81;5228154;28;20446;-78
2021/01/22 09:17:27;;;;;;;15.40;6.80;;;;;;;3.39;100.00;99286.94;5228948;28;20036;-78
2021/01/22 09:19:59;;;;;;;19.45;7.07;;;;;;;3.38;100.00;99286.13;5228322;28;20025;-79
2021/01/22 09:22:31;;;;;;;18.15;7.78;;;;;;;3.37;100.00;99291.59;5228566;28;20083;-77
2021/01/22 09:25:05;;;;;;;23.38;6.45;;;;;;;3.45;100.00;99296.09;5217332;28;20029;-78
2021/01/22 09:27:37;;;;;;;14.98;6.53;;;;;;;3.46;100.00;99305.69;5224716;28;20112;-79
2021/01/22 09:30:11;;;;;;;23.70;7.72;;;;;;;3.51;100.00;99306.06;5228428;28;20088;-79
2021/01/22 09:32:48;;;;;;;18.38;6.15;;;;;;;3.50;100.00;99310.53;5226916;28;20143;-76
2021/01/22 09:35:20;;;;;;;19.13;6.45;;;;;;;3.53;100.00;99312.06;5226641;28;20052;-78
2021/01/22 09:37:52;;;;;;;19.63;7.50;;;;;;;3.59;100.00;99311.41;5226426;28;20028;-79
2021/01/22 09:40:23;;;;;;;17.40;6.25;;;;;;;3.62;100.00;99322.53;5227523;28;20032;-78
2021/01/22 09:42:53;;;;;;;22.10;7.18;;;;;;;3.67;100.00;99326.53;5226929;28;20082;-78
2021/01/22 09:45:24;;;;;;;21.23;6.55;;;;;;;3.66;100.00;99325.69;5224916;28;20335;-77
2021/01/22 09:47:54;;;;;;;17.30;6.40;;;;;;;3.77;100.00;99332.56;5224994;28;20108;-78
2021/01/22 09:50:25;;;;;;;19.88;6.45;;;;;;;3.74;100.00;99333.69;5224795;28;20492;-78
2021/01/22 09:52:55;;;;;;;19.85;6.38;;;;;;;3.78;100.00;99337.69;5223278;28;20033;-79
2021/01/22 09:55:26;;;;;;;14.13;5.95;;;;;;;3.82;100.00;99343.50;5231648;28;20025;-79
2021/01/22 09:57:56;;;;;;;13.80;6.07;;;;;;;3.88;100.00;99349.00;5229363;28;20037;-78
2021/01/22 10:00:27;;;;;;;18.95;6.82;;;;;;;3.98;100.00;99342.75;5231741;28;20035;-79
2021/01/22 10:02:59;;;;;;;14.43;5.25;;;;;;;4.11;100.00;99345.75;5230085;28;20056;-78
2021/01/22 10:05:29;;;;;;;17.83;6.30;;;;;;;4.12;100.00;99345.63;5231068;28;20029;-78
2021/01/22 10:08:00;;;;;;;18.85;6.22;;;;;;;4.21;100.00;99351.75;5230863;28;20059;-79
2021/01/22 10:10:30;;;;;;;18.45;6.30;;;;;;;4.34;100.00;99351.31;5230723;28;20033;-79
2021/01/22 10:13:00;;;;;;;20.25;5.43;;;;;;;4.44;100.00;99349.31;5228040;28;20183;-79
2021/01/22 10:15:31;;;;;;;10.45;4.78;;;;;;;4.54;100.00;99349.19;5229243;28;20024;-79
2021/01/22 10:18:01;;;;;;;10.65;5.90;;;;;;;4.65;100.00;99362.13;5229971;28;20028;-78
2021/01/22 10:20:32;;;;;;;13.85;4.78;;;;;;;4.64;100.00;99363.13;5230674;28;20048;-79
2021/01/22 10:23:02;;;;;;;11.85;4.20;;;;;;;4.68;100.00;99369.78;5229581;28;20025;-78
2021/01/22 10:25:33;;;;;;;14.38;5.93;;;;;;;4.81;100.00;99372.78;5229576;28;20318;-79
2021/01/22 10:28:03;;;;;;;10.40;4.30;;;;;;;4.93;100.00;99368.81;5229755;28;20040;-80
2021/01/22 10:30:34;;;;;;;18.00;4.78;;;;;;;4.99;100.00;99363.81;5229515;28;20446;-80
2021/01/22 10:33:04;;;;;;;22.05;6.22;;;;;;;5.08;100.00;99373.47;5229809;28;20017;-79
2021/01/22 10:35:35;;;;;;;9.27;4.25;;;;;;;5.09;100.00;99381.25;5228382;28;20245;-79
2021/01/22 10:38:06;;;;;;;12.40;4.65;;;;;;;5.14;100.00;99384.25;5230141;28;20023;-80
2021/01/22 10:40:37;;;;;;;21.20;7.22;;;;;;;5.19;100.00;99389.06;5229957;28;20053;-80
2021/01/22 10:43:07;;;;;;;15.98;5.00;;;;;;;5.27;100.00;99394.38;5228653;28;20168;-79
2021/01/22 10:45:38;;;;;;;12.60;3.63;;;;;;;5.34;100.00;99395.38;5230171;28;20395;-80
2021/01/22 10:48:08;;;;;;;14.68;4.40;;;;;;;5.31;100.00;99398.34;5230072;28;20025;-78
2021/01/22 10:50:39;;;;;;;12.60;4.95;;;;;;;5.44;100.00;99401.34;5228966;28;20059;-78
2021/01/22 10:53:10;;;;;;;14.43;4.38;;;;;;;5.48;100.00;99401.84;5229359;28;20064;-79
2021/01/22 10:55:40;;;;;;;12.05;3.75;;;;;;;5.52;100.00;99402.31;5229934;28;20035;-77
2021/01/22 10:58:11;;;;;;;23.25;9.00;;;;;;;5.59;100.00;99398.81;5229192;28;20056;-78
2021/01/22 11:00:42;;;;;;;42.45;13.65;;;;;;;5.72;100.00;99408.91;5230158;28;20035;-78
2021/01/22 11:03:12;;;;;;;19.80;6.97;;;;;;;5.65;100.00;99418.59;5228447;28;20498;-80
2021/01/22 11:05:43;;;;;;;20.75;6.47;;;;;;;5.64;100.00;99406.31;5229093;28;20029;-79
2021/01/22 11:08:13;;;;;;;8.77;3.67;;;;;;;5.75;100.00;99407.75;5224995;28;20379;-77
2021/01/22 11:10:43;;;;;;;10.40;4.28;;;;;;;5.77;100.00;99419.88;5224634;28;20245;-78
2021/01/22 11:13:14;;;;;;;16.15;4.53;;;;;;;5.84;100.00;99412.91;5229043;28;20051;-79
2021/01/22 11:15:44;;;;;;;13.40;4.03;;;;;;;5.87;100.00;99420.56;5229616;28;20029;-78
2021/01/22 11:18:16;;;;;;;8.98;3.72;;;;;;;6.01;100.00;99423.53;5228920;28;20025;-80
2021/01/22 11:20:46;;;;;;;14.23;4.10;;;;;;;6.06;100.00;99426.50;5229486;28;20056;-79
2021/01/22 11:23:17;;;;;;;11.50;3.22;;;;;;;6.05;100.00;99430.16;5228153;28;20082;-78
2021/01/22 11:25:47;;;;;;;15.27;5.47;;;;;;;6.02;100.00;99430.50;5227458;28;20025;-78
2021/01/22 11:28:17;;;;;;;12.73;4.03;;;;;;;6.03;100.00;99433.00;5229376;28;20040;-78
2021/01/22 11:30:48;;;;;;;14.13;4.10;;;;;;;6.06;100.00;99437.16;5229328;28;20021;-79
2021/01/22 11:33:18;;;;;;;11.32;3.55;;;;;;;6.14;100.00;99434.47;5228955;28;20534;-78
2021/01/22 11:35:49;;;;;;;17.67;5.88;;;;;;;6.12;100.00;99436.47;5228905;28;20071;-78
2021/01/22 11:38:19;;;;;;;10.20;4.10;;;;;;;6.16;100.00;99443.09;5230074;28;20021;-78
2021/01/22 11:40:49;;;;;;;14.20;4.40;;;;;;;6.21;100.00;99440.75;5228724;28;20040;-78
2021/01/22 11:43:20;;;;;;;16.00;3.70;;;;;;;6.22;100.00;99439.75;5231588;28;20464;-77
2021/01/22 11:45:51;;;;;;;13.95;3.90;;;;;;;6.12;100.00;99436.47;5230906;28;20024;-78
2021/01/22 11:48:22;;;;;;;15.13;4.13;;;;;;;6.22;100.00;99434.41;5230306;28;20037;-78
2021/01/22 11:50:52;;;;;;;12.32;4.93;;;;;;;6.23;100.00;99430.78;5229905;28;20369;-78
2021/01/22 11:53:22;;;;;;;9.45;3.25;;;;;;;6.35;100.00;99431.22;5230155;28;20215;-78